sensor_id;sensor_type;location;lat;lon;timestamp;pressure;altitude;pressure_sealevel;temperature
35582;BMP180;21687;48.900;9.188;2023-04-06T00:02:22;98670.00;;;-2.00
35582;BMP180;21687;48.900;9.188;2023-04-06T00:04:49;98673.00;;;-2.00
35582;BMP180;21687;48.900;9.188;2023-04-06T00:07:15;98671.00;;;-2.00
35582;BMP180;21687;48.900;9.188;2023-04-06T00:09:41;98657.00;;;-1.90
35582;BMP180;21687;48.900;9.188;2023-04-06T00:12:08;98661.00;;;-1.90
35582;BMP180;21687;48.900;9.188;2023-04-06T00:14:34;98657.00;;;-1.80
35582;BMP180;21687;48.900;9.188;2023-04-06T00:17:00;98663.00;;;-1.70
35582;BMP180;21687;48.900;9.188;2023-04-06T00:19:26;98660.00;;;-1.60
35582;BMP180;21687;48.900;9.188;2023-04-06T00:21:52;98665.00;;;-1.60
35582;BMP180;21687;48.900;9.188;2023-04-06T00:24:19;98662.00;;;-1.60
35582;BMP180;21687;48.900;9.188;2023-04-06T00:26:45;98655.00;;;-1.70
35582;BMP180;21687;48.900;9.188;2023-04-06T00:29:11;98658.00;;;-1.80
35582;BMP180;21687;48.900;9.188;2023-04-06T00:31:37;98661.00;;;-1.90
35582;BMP180;21687;48.900;9.188;2023-04-06T00:34:05;98657.00;;;-1.90
35582;BMP180;21687;48.900;9.188;2023-04-06T00:36:31;98661.00;;;-2.00
35582;BMP180;21687;48.900;9.188;2023-04-06T00:38:57;98667.00;;;-2.00
35582;BMP180;21687;48.900;9.188;2023-04-06T00:41:23;98620.00;;;-2.10
35582;BMP180;21687;48.900;9.188;2023-04-06T00:43:50;98651.00;;;-2.20
35582;BMP180;21687;48.900;9.188;2023-04-06T00:46:16;98647.00;;;-2.30
35582;BMP180;21687;48.900;9.188;2023-04-06T00:48:43;98648.00;;;-2.10
35582;BMP180;21687;48.900;9.188;2023-04-06T00:51:09;98653.00;;;-2.00
35582;BMP180;21687;48.900;9.188;2023-04-06T00:53:35;98647.00;;;-2.00
35582;BMP180;21687;48.900;9.188;2023-04-06T00:56:02;98646.00;;;-2.10
35582;BMP180;21687;48.900;9.188;2023-04-06T00:58:28;98641.00;;;-2.20
35582;BMP180;21687;48.900;9.188;2023-04-06T01:00:54;98636.00;;;-2.30
35582;BMP180;21687;48.900;9.188;2023-04-06T01:03:21;98638.00;;;-2.40
35582;BMP180;21687;48.900;9.188;2023-04-06T01:05:48;98647.00;;;-2.40
35582;BMP180;21687;48.900;9.188;2023-04-06T01:08:14;98636.00;;;-2.40
35582;BMP180;21687;48.900;9.188;2023-04-06T01:10:40;98643.00;;;-2.50
35582;BMP180;21687;48.900;9.188;2023-04-06T01:13:07;98636.00;;;-2.50
35582;BMP180;21687;48.900;9.188;2023-04-06T01:15:35;98633.00;;;-2.50
35582;BMP180;21687;48.900;9.188;2023-04-06T01:18:05;98638.00;;;-2.50
35582;BMP180;21687;48.900;9.188;2023-04-06T01:20:32;98636.00;;;-2.60
35582;BMP180;21687;48.900;9.188;2023-04-06T01:22:59;98644.00;;;-2.60
35582;BMP180;21687;48.900;9.188;2023-04-06T01:25:25;98636.00;;;-2.60
35582;BMP180;21687;48.900;9.188;2023-04-06T01:27:51;98635.00;;;-2.60
35582;BMP180;21687;48.900;9.188;2023-04-06T01:30:17;98626.00;;;-2.50
35582;BMP180;21687;48.900;9.188;2023-04-06T01:32:44;98629.00;;;-2.50
35582;BMP180;21687;48.900;9.188;2023-04-06T01:35:10;98628.00;;;-2.60
35582;BMP180;21687;48.900;9.188;2023-04-06T01:37:37;98631.00;;;-2.50
35582;BMP180;21687;48.900;9.188;2023-04-06T01:40:04;98622.00;;;-2.50
35582;BMP180;21687;48.900;9.188;2023-04-06T01:42:30;98614.00;;;-2.60
35582;BMP180;21687;48.900;9.188;2023-04-06T01:44:56;98623.00;;;-2.60
35582;BMP180;21687;48.900;9.188;2023-04-06T01:47:23;98620.00;;;-2.70
35582;BMP180;21687;48.900;9.188;2023-04-06T01:49:49;98607.00;;;-2.80
35582;BMP180;21687;48.900;9.188;2023-04-06T01:52:15;98621.00;;;-2.80
35582;BMP180;21687;48.900;9.188;2023-04-06T01:54:41;98614.00;;;-2.80
35582;BMP180;21687;48.900;9.188;2023-04-06T01:57:08;98609.00;;;-2.80
35582;BMP180;21687;48.900;9.188;2023-04-06T01:59:34;98616.00;;;-2.90
35582;BMP180;21687;48.900;9.188;2023-04-06T02:02:00;98608.00;;;-2.90
35582;BMP180;21687;48.900;9.188;2023-04-06T02:04:26;98606.00;;;-2.90
35582;BMP180;21687;48.900;9.188;2023-04-06T02:06:53;98607.00;;;-3.00
35582;BMP180;21687;48.900;9.188;2023-04-06T02:09:19;98604.00;;;-2.90
35582;BMP180;21687;48.900;9.188;2023-04-06T02:11:45;98609.00;;;-3.00
35582;BMP180;21687;48.900;9.188;2023-04-06T02:14:11;98605.00;;;-3.00
35582;BMP180;21687;48.900;9.188;2023-04-06T02:16:37;98607.00;;;-2.90
35582;BMP180;21687;48.900;9.188;2023-04-06T02:19:04;98607.00;;;-2.90
35582;BMP180;21687;48.900;9.188;2023-04-06T02:21:30;98599.00;;;-2.90
35582;BMP180;21687;48.900;9.188;2023-04-06T02:23:56;98605.00;;;-2.90
35582;BMP180;21687;48.900;9.188;2023-04-06T02:26:22;98606.00;;;-2.90
35582;BMP180;21687;48.900;9.188;2023-04-06T02:28:49;98607.00;;;-2.90
35582;BMP180;21687;48.900;9.188;2023-04-06T02:31:15;98616.00;;;-2.80
35582;BMP180;21687;48.900;9.188;2023-04-06T02:33:42;98601.00;;;-2.80
35582;BMP180;21687;48.900;9.188;2023-04-06T02:36:08;98599.00;;;-2.80
35582;BMP180;21687;48.900;9.188;2023-04-06T02:38:34;98594.00;;;-2.90
35582;BMP180;21687;48.900;9.188;2023-04-06T02:41:01;98586.00;;;-2.90
35582;BMP180;21687;48.900;9.188;2023-04-06T02:43:27;98594.00;;;-2.90
35582;BMP180;21687;48.900;9.188;2023-04-06T02:45:53;98596.00;;;-2.90
35582;BMP180;21687;48.900;9.188;2023-04-06T02:48:19;98592.00;;;-2.90
35582;BMP180;21687;48.900;9.188;2023-04-06T02:50:46;98589.00;;;-2.80
35582;BMP180;21687;48.900;9.188;2023-04-06T02:53:12;98582.00;;;-2.90
35582;BMP180;21687;48.900;9.188;2023-04-06T02:55:38;98591.00;;;-2.80
35582;BMP180;21687;48.900;9.188;2023-04-06T02:58:04;98588.00;;;-2.70
35582;BMP180;21687;48.900;9.188;2023-04-06T03:00:31;98588.00;;;-2.60
35582;BMP180;21687;48.900;9.188;2023-04-06T03:02:57;98589.00;;;-2.60
35582;BMP180;21687;48.900;9.188;2023-04-06T03:05:23;98597.00;;;-2.50
35582;BMP180;21687;48.900;9.188;2023-04-06T03:07:50;98566.00;;;-2.70
35582;BMP180;21687;48.900;9.188;2023-04-06T03:10:16;98596.00;;;-2.70
35582;BMP180;21687;48.900;9.188;2023-04-06T03:12:42;98585.00;;;-2.80
35582;BMP180;21687;48.900;9.188;2023-04-06T03:15:09;98571.00;;;-2.80
35582;BMP180;21687;48.900;9.188;2023-04-06T03:17:35;98587.00;;;-2.70
35582;BMP180;21687;48.900;9.188;2023-04-06T03:20:02;98586.00;;;-2.60
35582;BMP180;21687;48.900;9.188;2023-04-06T03:22:29;98584.00;;;-2.50
35582;BMP180;21687;48.900;9.188;2023-04-06T03:24:55;98578.00;;;-2.40
35582;BMP180;21687;48.900;9.188;2023-04-06T03:27:22;98585.00;;;-2.50
35582;BMP180;21687;48.900;9.188;2023-04-06T03:29:48;98589.00;;;-2.60
35582;BMP180;21687;48.900;9.188;2023-04-06T03:32:14;98587.00;;;-2.60
35582;BMP180;21687;48.900;9.188;2023-04-06T03:34:41;98593.00;;;-2.70
35582;BMP180;21687;48.900;9.188;2023-04-06T03:37:07;98580.00;;;-2.80
35582;BMP180;21687;48.900;9.188;2023-04-06T03:39:33;98593.00;;;-2.80
35582;BMP180;21687;48.900;9.188;2023-04-06T03:41:59;98588.00;;;-2.90
35582;BMP180;21687;48.900;9.188;2023-04-06T03:44:26;98602.00;;;-2.90
35582;BMP180;21687;48.900;9.188;2023-04-06T03:46:52;98595.00;;;-2.90
35582;BMP180;21687;48.900;9.188;2023-04-06T03:49:18;98599.00;;;-2.90
35582;BMP180;21687;48.900;9.188;2023-04-06T03:51:44;98591.00;;;-3.00
35582;BMP180;21687;48.900;9.188;2023-04-06T03:54:11;98600.00;;;-3.00
35582;BMP180;21687;48.900;9.188;2023-04-06T03:56:37;98590.00;;;-3.00
35582;BMP180;21687;48.900;9.188;2023-04-06T03:59:03;98599.00;;;-2.90
35582;BMP180;21687;48.900;9.188;2023-04-06T04:01:30;98599.00;;;-3.00
35582;BMP180;21687;48.900;9.188;2023-04-06T04:03:56;98599.00;;;-2.90
35582;BMP180;21687;48.900;9.188;2023-04-06T04:06:22;98603.00;;;-2.90
35582;BMP180;21687;48.900;9.188;2023-04-06T04:08:49;98594.00;;;-2.90
35582;BMP180;21687;48.900;9.188;2023-04-06T04:11:15;98605.00;;;-3.00
35582;BMP180;21687;48.900;9.188;2023-04-06T04:13:41;98603.00;;;-3.00
35582;BMP180;21687;48.900;9.188;2023-04-06T04:16:08;98605.00;;;-2.90
35582;BMP180;21687;48.900;9.188;2023-04-06T04:18:34;98606.00;;;-2.90
35582;BMP180;21687;48.900;9.188;2023-04-06T04:21:01;98610.00;;;-3.10
35582;BMP180;21687;48.900;9.188;2023-04-06T04:23:27;98619.00;;;-3.20
35582;BMP180;21687;48.900;9.188;2023-04-06T04:25:53;98615.00;;;-3.30
35582;BMP180;21687;48.900;9.188;2023-04-06T04:28:19;98605.00;;;-3.10
35582;BMP180;21687;48.900;9.188;2023-04-06T04:30:46;98622.00;;;-3.10
35582;BMP180;21687;48.900;9.188;2023-04-06T04:33:12;98619.00;;;-3.10
35582;BMP180;21687;48.900;9.188;2023-04-06T04:35:39;98629.00;;;-3.10
35582;BMP180;21687;48.900;9.188;2023-04-06T04:38:05;98625.00;;;-3.20
35582;BMP180;21687;48.900;9.188;2023-04-06T04:40:31;98618.00;;;-3.20
35582;BMP180;21687;48.900;9.188;2023-04-06T04:42:57;98618.00;;;-3.10
35582;BMP180;21687;48.900;9.188;2023-04-06T04:45:23;98603.00;;;-3.10
35582;BMP180;21687;48.900;9.188;2023-04-06T04:47:50;98620.00;;;-3.20
35582;BMP180;21687;48.900;9.188;2023-04-06T04:50:16;98620.00;;;-3.10
35582;BMP180;21687;48.900;9.188;2023-04-06T04:52:42;98614.00;;;-3.00
35582;BMP180;21687;48.900;9.188;2023-04-06T04:55:09;98622.00;;;-3.00
35582;BMP180;21687;48.900;9.188;2023-04-06T04:57:35;98616.00;;;-3.00
35582;BMP180;21687;48.900;9.188;2023-04-06T05:00:01;98620.00;;;-3.00
35582;BMP180;21687;48.900;9.188;2023-04-06T05:02:28;98623.00;;;-3.00
35582;BMP180;21687;48.900;9.188;2023-04-06T05:04:54;98621.00;;;-3.10
35582;BMP180;21687;48.900;9.188;2023-04-06T05:07:20;98593.00;;;-3.00
35582;BMP180;21687;48.900;9.188;2023-04-06T05:09:47;98633.00;;;-2.80
35582;BMP180;21687;48.900;9.188;2023-04-06T05:12:13;98628.00;;;-2.70
35582;BMP180;21687;48.900;9.188;2023-04-06T05:14:40;98629.00;;;-2.70
35582;BMP180;21687;48.900;9.188;2023-04-06T05:17:06;98626.00;;;-2.70
35582;BMP180;21687;48.900;9.188;2023-04-06T05:19:32;98631.00;;;-2.60
35582;BMP180;21687;48.900;9.188;2023-04-06T05:21:59;98638.00;;;-2.60
35582;BMP180;21687;48.900;9.188;2023-04-06T05:24:25;98648.00;;;-2.50
35582;BMP180;21687;48.900;9.188;2023-04-06T05:26:51;98650.00;;;-2.50
35582;BMP180;21687;48.900;9.188;2023-04-06T05:29:19;98650.00;;;-2.40
35582;BMP180;21687;48.900;9.188;2023-04-06T05:31:46;98651.00;;;-2.40
35582;BMP180;21687;48.900;9.188;2023-04-06T05:34:12;98636.00;;;-2.40
35582;BMP180;21687;48.900;9.188;2023-04-06T05:36:39;98647.00;;;-2.20
35582;BMP180;21687;48.900;9.188;2023-04-06T05:39:06;98643.00;;;-2.00
35582;BMP180;21687;48.900;9.188;2023-04-06T05:41:33;98659.00;;;-1.80
35582;BMP180;21687;48.900;9.188;2023-04-06T05:43:59;98660.00;;;-1.70
35582;BMP180;21687;48.900;9.188;2023-04-06T05:46:26;98652.00;;;-1.60
35582;BMP180;21687;48.900;9.188;2023-04-06T05:48:52;98654.00;;;-1.60
35582;BMP180;21687;48.900;9.188;2023-04-06T05:51:18;98659.00;;;-1.50
35582;BMP180;21687;48.900;9.188;2023-04-06T05:53:44;98660.00;;;-1.50
35582;BMP180;21687;48.900;9.188;2023-04-06T05:56:11;98656.00;;;-1.40
35582;BMP180;21687;48.900;9.188;2023-04-06T05:58:37;98650.00;;;-1.30
35582;BMP180;21687;48.900;9.188;2023-04-06T06:01:03;98656.00;;;-1.20
35582;BMP180;21687;48.900;9.188;2023-04-06T06:03:30;98656.00;;;-1.20
35582;BMP180;21687;48.900;9.188;2023-04-06T06:06:03;98659.00;;;-1.00
35582;BMP180;21687;48.900;9.188;2023-04-06T06:08:30;98642.00;;;-0.90
35582;BMP180;21687;48.900;9.188;2023-04-06T06:10:56;98654.00;;;-0.90
35582;BMP180;21687;48.900;9.188;2023-04-06T06:13:23;98659.00;;;-0.70
35582;BMP180;21687;48.900;9.188;2023-04-06T06:15:50;98665.00;;;-0.60
35582;BMP180;21687;48.900;9.188;2023-04-06T06:18:16;98637.00;;;-0.40
35582;BMP180;21687;48.900;9.188;2023-04-06T06:20:43;98656.00;;;-0.20
35582;BMP180;21687;48.900;9.188;2023-04-06T06:23:09;98659.00;;;-0.20
35582;BMP180;21687;48.900;9.188;2023-04-06T06:25:35;98665.00;;;0.10
35582;BMP180;21687;48.900;9.188;2023-04-06T06:28:02;98670.00;;;0.30
35582;BMP180;21687;48.900;9.188;2023-04-06T06:30:28;98672.00;;;0.50
35582;BMP180;21687;48.900;9.188;2023-04-06T06:32:54;98674.00;;;0.70
35582;BMP180;21687;48.900;9.188;2023-04-06T06:35:20;98666.00;;;0.80
35582;BMP180;21687;48.900;9.188;2023-04-06T06:37:47;98666.00;;;0.90
35582;BMP180;21687;48.900;9.188;2023-04-06T06:40:13;98659.00;;;1.00
35582;BMP180;21687;48.900;9.188;2023-04-06T06:42:41;98672.00;;;1.10
35582;BMP180;21687;48.900;9.188;2023-04-06T06:45:08;98665.00;;;1.20
35582;BMP180;21687;48.900;9.188;2023-04-06T06:47:35;98665.00;;;1.30
35582;BMP180;21687;48.900;9.188;2023-04-06T06:50:01;98670.00;;;1.40
35582;BMP180;21687;48.900;9.188;2023-04-06T06:52:29;98675.00;;;1.60
35582;BMP180;21687;48.900;9.188;2023-04-06T06:54:55;98665.00;;;1.70
35582;BMP180;21687;48.900;9.188;2023-04-06T06:57:22;98675.00;;;1.80
35582;BMP180;21687;48.900;9.188;2023-04-06T06:59:48;98674.00;;;2.00
35582;BMP180;21687;48.900;9.188;2023-04-06T07:02:14;98684.00;;;2.30
35582;BMP180;21687;48.900;9.188;2023-04-06T07:04:41;98676.00;;;2.50
35582;BMP180;21687;48.900;9.188;2023-04-06T07:07:07;98684.00;;;2.60
35582;BMP180;21687;48.900;9.188;2023-04-06T07:09:35;98681.00;;;3.00
35582;BMP180;21687;48.900;9.188;2023-04-06T07:12:01;98677.00;;;3.40
35582;BMP180;21687;48.900;9.188;2023-04-06T07:14:28;98684.00;;;3.70
35582;BMP180;21687;48.900;9.188;2023-04-06T07:16:54;98674.00;;;3.70
35582;BMP180;21687;48.900;9.188;2023-04-06T07:19:20;98687.00;;;3.70
35582;BMP180;21687;48.900;9.188;2023-04-06T07:21:47;98676.00;;;3.60
35582;BMP180;21687;48.900;9.188;2023-04-06T07:24:15;98686.00;;;3.60
35582;BMP180;21687;48.900;9.188;2023-04-06T07:26:41;98681.00;;;3.60
35582;BMP180;21687;48.900;9.188;2023-04-06T07:29:08;98689.00;;;3.70
35582;BMP180;21687;48.900;9.188;2023-04-06T07:31:34;98689.00;;;3.60
35582;BMP180;21687;48.900;9.188;2023-04-06T07:34:02;98683.00;;;3.70
35582;BMP180;21687;48.900;9.188;2023-04-06T07:36:28;98684.00;;;3.80
35582;BMP180;21687;48.900;9.188;2023-04-06T07:38:54;98692.00;;;4.30
35582;BMP180;21687;48.900;9.188;2023-04-06T07:41:20;98687.00;;;4.80
35582;BMP180;21687;48.900;9.188;2023-04-06T07:43:47;98693.00;;;5.60
35582;BMP180;21687;48.900;9.188;2023-04-06T07:46:14;98685.00;;;6.10
35582;BMP180;21687;48.900;9.188;2023-04-06T07:48:40;98691.00;;;6.50
35582;BMP180;21687;48.900;9.188;2023-04-06T07:51:07;98695.00;;;6.70
35582;BMP180;21687;48.900;9.188;2023-04-06T07:53:36;98700.00;;;6.60
35582;BMP180;21687;48.900;9.188;2023-04-06T07:56:02;98700.00;;;7.40
35582;BMP180;21687;48.900;9.188;2023-04-06T07:58:28;98700.00;;;7.30
35582;BMP180;21687;48.900;9.188;2023-04-06T08:00:55;98693.00;;;6.90
35582;BMP180;21687;48.900;9.188;2023-04-06T08:03:21;98688.00;;;7.20
35582;BMP180;21687;48.900;9.188;2023-04-06T08:05:51;98690.00;;;7.90
35582;BMP180;21687;48.900;9.188;2023-04-06T08:08:19;98692.00;;;8.10
35582;BMP180;21687;48.900;9.188;2023-04-06T08:10:47;98689.00;;;8.60
35582;BMP180;21687;48.900;9.188;2023-04-06T08:13:14;98688.00;;;8.40
35582;BMP180;21687;48.900;9.188;2023-04-06T08:15:41;98696.00;;;8.60
35582;BMP180;21687;48.900;9.188;2023-04-06T08:18:07;98693.00;;;9.10
35582;BMP180;21687;48.900;9.188;2023-04-06T08:20:34;98694.00;;;9.20
35582;BMP180;21687;48.900;9.188;2023-04-06T08:23:01;98700.00;;;9.50
35582;BMP180;21687;48.900;9.188;2023-04-06T08:25:27;98695.00;;;8.90
35582;BMP180;21687;48.900;9.188;2023-04-06T08:27:55;98698.00;;;9.00
35582;BMP180;21687;48.900;9.188;2023-04-06T08:30:24;98690.00;;;9.10
35582;BMP180;21687;48.900;9.188;2023-04-06T08:32:51;98696.00;;;9.20
35582;BMP180;21687;48.900;9.188;2023-04-06T08:35:19;98673.00;;;8.60
35582;BMP180;21687;48.900;9.188;2023-04-06T08:37:46;98691.00;;;8.80
35582;BMP180;21687;48.900;9.188;2023-04-06T08:40:13;98693.00;;;8.20
35582;BMP180;21687;48.900;9.188;2023-04-06T08:42:44;98690.00;;;8.10
35582;BMP180;21687;48.900;9.188;2023-04-06T08:45:17;98698.00;;;7.80
35582;BMP180;21687;48.900;9.188;2023-04-06T08:47:50;98693.00;;;7.60
35582;BMP180;21687;48.900;9.188;2023-04-06T08:50:17;98700.00;;;7.50
35582;BMP180;21687;48.900;9.188;2023-04-06T08:52:46;98688.00;;;7.40
35582;BMP180;21687;48.900;9.188;2023-04-06T08:55:13;98694.00;;;7.30
35582;BMP180;21687;48.900;9.188;2023-04-06T08:57:39;98692.00;;;7.30
35582;BMP180;21687;48.900;9.188;2023-04-06T09:00:10;98686.00;;;7.20
35582;BMP180;21687;48.900;9.188;2023-04-06T09:02:39;98682.00;;;7.20
35582;BMP180;21687;48.900;9.188;2023-04-06T09:05:08;98688.00;;;7.30
35582;BMP180;21687;48.900;9.188;2023-04-06T09:07:36;98684.00;;;7.30
35582;BMP180;21687;48.900;9.188;2023-04-06T09:10:07;98679.00;;;7.50
35582;BMP180;21687;48.900;9.188;2023-04-06T09:12:33;98679.00;;;7.60
35582;BMP180;21687;48.900;9.188;2023-04-06T09:15:00;98680.00;;;7.60
35582;BMP180;21687;48.900;9.188;2023-04-06T09:17:31;98668.00;;;7.70
35582;BMP180;21687;48.900;9.188;2023-04-06T09:20:03;98674.00;;;7.80
35582;BMP180;21687;48.900;9.188;2023-04-06T09:22:36;98678.00;;;8.00
35582;BMP180;21687;48.900;9.188;2023-04-06T09:25:03;98681.00;;;8.10
35582;BMP180;21687;48.900;9.188;2023-04-06T09:27:31;98678.00;;;8.20
35582;BMP180;21687;48.900;9.188;2023-04-06T09:30:11;98677.00;;;8.20
35582;BMP180;21687;48.900;9.188;2023-04-06T09:33:00;98678.00;;;8.30
35582;BMP180;21687;48.900;9.188;2023-04-06T09:35:26;98674.00;;;8.50
35582;BMP180;21687;48.900;9.188;2023-04-06T09:37:53;98680.00;;;8.40
35582;BMP180;21687;48.900;9.188;2023-04-06T09:40:20;98668.00;;;8.40
35582;BMP180;21687;48.900;9.188;2023-04-06T09:42:49;98675.00;;;8.60
35582;BMP180;21687;48.900;9.188;2023-04-06T09:45:17;98672.00;;;8.70
35582;BMP180;21687;48.900;9.188;2023-04-06T09:47:45;98658.00;;;8.80
35582;BMP180;21687;48.900;9.188;2023-04-06T09:50:13;98658.00;;;8.80
35582;BMP180;21687;48.900;9.188;2023-04-06T09:52:48;98658.00;;;8.90
35582;BMP180;21687;48.900;9.188;2023-04-06T09:55:34;98665.00;;;9.00
35582;BMP180;21687;48.900;9.188;2023-04-06T09:58:12;98671.00;;;9.10
35582;BMP180;21687;48.900;9.188;2023-04-06T10:01:06;98663.00;;;9.00
35582;BMP180;21687;48.900;9.188;2023-04-06T10:04:09;98655.00;;;9.30
35582;BMP180;21687;48.900;9.188;2023-04-06T10:06:39;98661.00;;;9.60
35582;BMP180;21687;48.900;9.188;2023-04-06T10:09:07;98662.00;;;9.60
35582;BMP180;21687;48.900;9.188;2023-04-06T10:11:34;98661.00;;;9.70
35582;BMP180;21687;48.900;9.188;2023-04-06T10:14:01;98659.00;;;9.70
35582;BMP180;21687;48.900;9.188;2023-04-06T10:16:28;98668.00;;;9.70
35582;BMP180;21687;48.900;9.188;2023-04-06T10:19:04;98664.00;;;9.90
35582;BMP180;21687;48.900;9.188;2023-04-06T10:21:33;98656.00;;;10.10
35582;BMP180;21687;48.900;9.188;2023-04-06T10:24:02;98650.00;;;10.00
35582;BMP180;21687;48.900;9.188;2023-04-06T10:26:32;98656.00;;;10.00
35582;BMP180;21687;48.900;9.188;2023-04-06T10:29:03;98656.00;;;10.10
35582;BMP180;21687;48.900;9.188;2023-04-06T10:31:29;98656.00;;;10.20
35582;BMP180;21687;48.900;9.188;2023-04-06T10:34:01;98660.00;;;10.20
35582;BMP180;21687;48.900;9.188;2023-04-06T10:36:32;98656.00;;;10.10
35582;BMP180;21687;48.900;9.188;2023-04-06T10:39:00;98656.00;;;9.80
35582;BMP180;21687;48.900;9.188;2023-04-06T10:41:42;98650.00;;;10.00
35582;BMP180;21687;48.900;9.188;2023-04-06T10:44:17;98648.00;;;10.20
35582;BMP180;21687;48.900;9.188;2023-04-06T10:46:53;98650.00;;;10.40
35582;BMP180;21687;48.900;9.188;2023-04-06T10:49:21;98647.00;;;10.50
35582;BMP180;21687;48.900;9.188;2023-04-06T10:51:53;98648.00;;;10.50
35582;BMP180;21687;48.900;9.188;2023-04-06T10:54:21;98639.00;;;10.30
35582;BMP180;21687;48.900;9.188;2023-04-06T10:56:49;98639.00;;;10.40
35582;BMP180;21687;48.900;9.188;2023-04-06T10:59:20;98652.00;;;10.60
35582;BMP180;21687;48.900;9.188;2023-04-06T11:01:47;98652.00;;;10.70
35582;BMP180;21687;48.900;9.188;2023-04-06T11:04:17;98636.00;;;10.60
35582;BMP180;21687;48.900;9.188;2023-04-06T11:06:47;98646.00;;;10.80
35582;BMP180;21687;48.900;9.188;2023-04-06T11:09:24;98646.00;;;10.80
35582;BMP180;21687;48.900;9.188;2023-04-06T11:11:51;98638.00;;;10.90
35582;BMP180;21687;48.900;9.188;2023-04-06T11:14:17;98644.00;;;10.80
35582;BMP180;21687;48.900;9.188;2023-04-06T11:16:47;98641.00;;;10.80
35582;BMP180;21687;48.900;9.188;2023-04-06T11:19:17;98633.00;;;10.90
35582;BMP180;21687;48.900;9.188;2023-04-06T11:21:45;98630.00;;;10.90
35582;BMP180;21687;48.900;9.188;2023-04-06T11:24:21;98623.00;;;10.70
35582;BMP180;21687;48.900;9.188;2023-04-06T11:26:53;98617.00;;;10.70
35582;BMP180;21687;48.900;9.188;2023-04-06T11:29:22;98618.00;;;10.60
35582;BMP180;21687;48.900;9.188;2023-04-06T11:31:53;98614.00;;;10.50
35582;BMP180;21687;48.900;9.188;2023-04-06T11:34:22;98609.00;;;10.70
35582;BMP180;21687;48.900;9.188;2023-04-06T11:36:53;98607.00;;;10.60
35582;BMP180;21687;48.900;9.188;2023-04-06T11:39:22;98608.00;;;10.60
35582;BMP180;21687;48.900;9.188;2023-04-06T11:42:02;98608.00;;;10.60
35582;BMP180;21687;48.900;9.188;2023-04-06T11:44:40;98601.00;;;10.60
35582;BMP180;21687;48.900;9.188;2023-04-06T11:47:10;98604.00;;;10.50
35582;BMP180;21687;48.900;9.188;2023-04-06T11:49:41;98603.00;;;10.70
35582;BMP180;21687;48.900;9.188;2023-04-06T11:52:25;98596.00;;;11.00
35582;BMP180;21687;48.900;9.188;2023-04-06T11:54:54;98598.00;;;11.00
35582;BMP180;21687;48.900;9.188;2023-04-06T11:57:23;98599.00;;;10.90
35582;BMP180;21687;48.900;9.188;2023-04-06T11:59:54;98589.00;;;11.00
35582;BMP180;21687;48.900;9.188;2023-04-06T12:02:21;98591.00;;;11.00
35582;BMP180;21687;48.900;9.188;2023-04-06T12:04:47;98590.00;;;10.90
35582;BMP180;21687;48.900;9.188;2023-04-06T12:07:13;98582.00;;;11.00
35582;BMP180;21687;48.900;9.188;2023-04-06T12:09:39;98595.00;;;10.90
35582;BMP180;21687;48.900;9.188;2023-04-06T12:12:05;98587.00;;;10.90
35582;BMP180;21687;48.900;9.188;2023-04-06T12:14:32;98580.00;;;10.90
35582;BMP180;21687;48.900;9.188;2023-04-06T12:16:58;98585.00;;;11.10
35582;BMP180;21687;48.900;9.188;2023-04-06T12:19:25;98583.00;;;11.30
35582;BMP180;21687;48.900;9.188;2023-04-06T12:21:54;98577.00;;;11.30
35582;BMP180;21687;48.900;9.188;2023-04-06T12:24:21;98576.00;;;11.30
35582;BMP180;21687;48.900;9.188;2023-04-06T12:26:47;98563.00;;;11.40
35582;BMP180;21687;48.900;9.188;2023-04-06T12:29:13;98566.00;;;11.50
35582;BMP180;21687;48.900;9.188;2023-04-06T12:31:40;98576.00;;;11.50
35582;BMP180;21687;48.900;9.188;2023-04-06T12:34:10;98546.00;;;11.50
35582;BMP180;21687;48.900;9.188;2023-04-06T12:36:37;98566.00;;;11.50
35582;BMP180;21687;48.900;9.188;2023-04-06T12:39:04;98561.00;;;11.40
35582;BMP180;21687;48.900;9.188;2023-04-06T12:41:31;98569.00;;;11.40
35582;BMP180;21687;48.900;9.188;2023-04-06T12:43:57;98565.00;;;11.70
35582;BMP180;21687;48.900;9.188;2023-04-06T12:46:25;98563.00;;;11.70
35582;BMP180;21687;48.900;9.188;2023-04-06T12:48:52;98561.00;;;11.60
35582;BMP180;21687;48.900;9.188;2023-04-06T12:51:22;98565.00;;;11.60
35582;BMP180;21687;48.900;9.188;2023-04-06T12:53:48;98548.00;;;11.60
35582;BMP180;21687;48.900;9.188;2023-04-06T12:56:16;98564.00;;;11.80
35582;BMP180;21687;48.900;9.188;2023-04-06T12:58:44;98561.00;;;11.90
35582;BMP180;21687;48.900;9.188;2023-04-06T13:01:10;98561.00;;;11.80
35582;BMP180;21687;48.900;9.188;2023-04-06T13:03:40;98552.00;;;11.80
35582;BMP180;21687;48.900;9.188;2023-04-06T13:06:06;98551.00;;;11.80
35582;BMP180;21687;48.900;9.188;2023-04-06T13:08:34;98551.00;;;11.70
35582;BMP180;21687;48.900;9.188;2023-04-06T13:11:02;98540.00;;;11.70
35582;BMP180;21687;48.900;9.188;2023-04-06T13:13:29;98543.00;;;11.70
35582;BMP180;21687;48.900;9.188;2023-04-06T13:16:00;98547.00;;;11.90
35582;BMP180;21687;48.900;9.188;2023-04-06T13:18:28;98538.00;;;12.20
35582;BMP180;21687;48.900;9.188;2023-04-06T13:20:55;98547.00;;;12.30
35582;BMP180;21687;48.900;9.188;2023-04-06T13:23:22;98536.00;;;12.10
35582;BMP180;21687;48.900;9.188;2023-04-06T13:26:09;98541.00;;;12.10
35582;BMP180;21687;48.900;9.188;2023-04-06T13:28:36;98530.00;;;12.30
35582;BMP180;21687;48.900;9.188;2023-04-06T13:31:06;98518.00;;;12.40
35582;BMP180;21687;48.900;9.188;2023-04-06T13:33:32;98535.00;;;12.50
35582;BMP180;21687;48.900;9.188;2023-04-06T13:35:59;98525.00;;;12.40
35582;BMP180;21687;48.900;9.188;2023-04-06T13:38:26;98523.00;;;12.60
35582;BMP180;21687;48.900;9.188;2023-04-06T13:40:52;98520.00;;;12.70
35582;BMP180;21687;48.900;9.188;2023-04-06T13:43:18;98515.00;;;12.90
35582;BMP180;21687;48.900;9.188;2023-04-06T13:45:50;98518.00;;;12.80
35582;BMP180;21687;48.900;9.188;2023-04-06T13:48:17;98517.00;;;12.90
35582;BMP180;21687;48.900;9.188;2023-04-06T13:50:44;98509.00;;;12.90
35582;BMP180;21687;48.900;9.188;2023-04-06T13:53:11;98515.00;;;12.50
35582;BMP180;21687;48.900;9.188;2023-04-06T13:55:37;98511.00;;;12.60
35582;BMP180;21687;48.900;9.188;2023-04-06T13:58:04;98507.00;;;12.70
35582;BMP180;21687;48.900;9.188;2023-04-06T14:00:30;98515.00;;;12.50
35582;BMP180;21687;48.900;9.188;2023-04-06T14:02:57;98510.00;;;12.50
35582;BMP180;21687;48.900;9.188;2023-04-06T14:05:23;98514.00;;;12.60
35582;BMP180;21687;48.900;9.188;2023-04-06T14:07:50;98508.00;;;12.60
35582;BMP180;21687;48.900;9.188;2023-04-06T14:10:16;98510.00;;;12.80
35582;BMP180;21687;48.900;9.188;2023-04-06T14:12:43;98511.00;;;12.60
35582;BMP180;21687;48.900;9.188;2023-04-06T14:15:13;98507.00;;;12.80